Jorge Wilsterman International Airport


Codes: SLCB/CBB
Name: Jorge Wilsterman International Airport
City: Cochabamba
Country: Bolivia
Elevation: 8360 ft.
Wikipedia:

Photos at Jorge Wilsterman International Airport


   Photos courtesy of SpottingLog. You can add your own sightings and photos by signing up for a free trial today.



No photos found.

Weather at Jorge Wilsterman International Airport


Time (UTC)DescriptionTempratureWindCloud coverageVisibilityPressureHumidity
21-Jun-2024 12:00Broken Clouds13°C2 mph, W64%10000m1023hPa58%
21-Jun-2024 15:00Scattered Clouds17°C2 mph, S36%10000m1018hPa40%
21-Jun-2024 18:00Few Clouds23°C4 mph, E11%10000m1009hPa23%
21-Jun-2024 21:00Few Clouds23°C4 mph, E19%10000m1007hPa24%
22-Jun-2024 00:00Scattered Clouds16°C2 mph, NW35%10000m1012hPa45%
22-Jun-2024 03:00Broken Clouds15°C2 mph, NW53%10000m1014hPa52%
22-Jun-2024 06:00Broken Clouds15°C2 mph, W65%10000m1014hPa50%
22-Jun-2024 09:00Scattered Clouds13°C2 mph, W30%10000m1014hPa51%
22-Jun-2024 12:00Scattered Clouds16°C0 mph, W33%10000m1017hPa43%
22-Jun-2024 15:00Clear Sky21°C2 mph, SE3%10000m1014hPa28%
22-Jun-2024 18:00Clear Sky25°C4 mph, SE2%10000m1007hPa19%
22-Jun-2024 21:00Clear Sky25°C7 mph, S5%10000m1005hPa16%
23-Jun-2024 00:00Few Clouds17°C2 mph, NE11%10000m1010hPa38%
23-Jun-2024 03:00Clear Sky15°C2 mph, NW7%10000m1013hPa47%
23-Jun-2024 06:00Few Clouds14°C2 mph, NW21%10000m1013hPa52%
23-Jun-2024 09:00Clear Sky13°C2 mph, NW1%10000m1013hPa54%
23-Jun-2024 12:00Clear Sky16°C2 mph, NW2%10000m1015hPa45%
23-Jun-2024 15:00Clear Sky22°C2 mph, SE3%10000m1012hPa30%
23-Jun-2024 18:00Clear Sky25°C2 mph, SE8%10000m1007hPa24%
23-Jun-2024 21:00Light Rain24°C7 mph, N32%10000m1006hPa28%
24-Jun-2024 00:00Few Clouds17°C2 mph, NE15%10000m1012hPa58%
24-Jun-2024 03:00Clear Sky15°C2 mph, N4%10000m1015hPa61%
24-Jun-2024 06:00Clear Sky14°C2 mph, N4%10000m1014hPa63%
24-Jun-2024 09:00Clear Sky13°C2 mph, NW0%10000m1015hPa66%
24-Jun-2024 12:00Clear Sky15°C2 mph, NE2%10000m1017hPa55%
24-Jun-2024 15:00Clear Sky21°C4 mph, E0%10000m1015hPa41%
24-Jun-2024 18:00Clear Sky23°C7 mph, NE5%10000m1010hPa36%
24-Jun-2024 21:00Light Rain20°C9 mph, NE26%10000m1011hPa48%
25-Jun-2024 00:00Few Clouds15°C4 mph, NE19%10000m1017hPa66%
25-Jun-2024 03:00Few Clouds14°C2 mph, NE18%10000m1019hPa70%
25-Jun-2024 06:00Few Clouds12°C0 mph, NW11%10000m1019hPa72%
25-Jun-2024 09:00Clear Sky11°C2 mph, NW2%10000m1018hPa73%
25-Jun-2024 12:00Clear Sky13°C0 mph, N2%10000m1020hPa61%
25-Jun-2024 15:00Clear Sky19°C4 mph, SE2%10000m1017hPa40%
25-Jun-2024 18:00Clear Sky23°C4 mph, SE4%10000m1011hPa33%
25-Jun-2024 21:00Few Clouds22°C2 mph, SE14%10000m1009hPa39%
26-Jun-2024 00:00Clear Sky16°C2 mph, N9%10000m1014hPa58%
26-Jun-2024 03:00Clear Sky14°C0 mph, S4%10000m1016hPa62%
26-Jun-2024 06:00Clear Sky13°C0 mph, SW4%10000m1015hPa62%
26-Jun-2024 09:00Clear Sky12°C0 mph, NW4%10000m1015hPa63%